<?xml version="1.0" encoding="UTF-8" standalone="no" ?>
<gpx xmlns="http://www.topografix.com/GPX/1/1" xmlns:xsi="http://www.w3.org/2001/XMLSchema-instance" xsi:schemaLocation="http://www.topografix.com/GPX/1/1 http://www.topografix.com/GPX/1/1/gpx.xsd" version="1.1" creator="VisuGPX - https://www.visugpx.com">
  <metadata>
    <name>Coueron_LacBeaulieuChabossiere_8-11km</name>
    <desc><![CDATA[gnerando idor:6470769_9134354_9679440]]></desc>
  </metadata>
  <wpt lat="47.2089" lon="-1.71941">
    <ele>11</ele>
    <name><![CDATA[0001563]]></name>
    <type><![CDATA[Point de départ]]></type>
  </wpt>
  <wpt lat="47.21443" lon="-1.73669">
    <ele>12.18</ele>
    <name><![CDATA[0001564]]></name>
    <desc><![CDATA[<p><br /><h3>Nom: Segment: 1</h3><br />Heure de départ: 03/17/2024 08:56<br/>Heure d'arrivée: 03/17/2024 11:14<br/>Distance: 9,4km (02:18)<br/>Temps déplacement: 01:57<br/>Vitesse moyenne: 4,07 km/h<br/>Vitesse moyenne mouv.: 4,68 km/h<br/>Vitesse Max.: 6,8 km/h<br/>Altitude minimale: 1 m<br/>Altitude maximale: 33 m<br/>Vitesse de montée: 193,2 m/h<br/>Vitesse de descente: -150,9 m/h<br/>Gain d'altitude: 143 m<br/>Perte d'altitude: -140 m<br/>Temps de montée: 00:44<br/>Temps de descente: 00:56<br/></p>]]></desc>
    <type><![CDATA[Point d'arrivée]]></type>
  </wpt>
  <wpt lat="47.21469" lon="-1.73649">
    <ele>14</ele>
    <name><![CDATA[0001565]]></name>
    <type><![CDATA[Point de départ]]></type>
  </wpt>
  <wpt lat="47.20891" lon="-1.71989">
    <ele>10.97</ele>
    <name><![CDATA[0001566]]></name>
    <desc><![CDATA[<p><br /><h3>Nom: Segment: 2</h3><br />Heure de départ: 03/17/2024 11:50<br/>Heure d'arrivée: 03/17/2024 12:10<br/>Distance: 1,8km (00:19)<br/>Temps déplacement: 00:19<br/>Vitesse moyenne: 5,39 km/h<br/>Vitesse moyenne mouv.: 5,42 km/h<br/>Vitesse Max.: 6,61 km/h<br/>Altitude minimale: 3 m<br/>Altitude maximale: 15 m<br/>Vitesse de montée: 138,9 m/h<br/>Vitesse de descente: -140,5 m/h<br/>Gain d'altitude: 16 m<br/>Perte d'altitude: -20 m<br/>Temps de montée: 00:07<br/>Temps de descente: 00:08<br/></p>]]></desc>
    <type><![CDATA[Point d'arrivée]]></type>
  </wpt>
  <trk>
    <name><![CDATA[CoueronChabossiereEssai_8km-9678719]]></name>
    <extensions>
      <line xmlns="http://www.topografix.com/GPX/gpx_style/0/2">
        <color>00FFFF</color>
        <width>4</width>
      </line>
    </extensions>
    <trkseg>
      <trkpt lat="47.21544" lon="-1.68263">
        <ele>27</ele>
        <time>2023-11-02T10:01:54Z</time>
      </trkpt>
      <trkpt lat="47.21529" lon="-1.68152">
        <ele>28</ele>
        <time>2023-11-02T10:03:37Z</time>
      </trkpt>
      <trkpt lat="47.21568" lon="-1.67944">
        <ele>30</ele>
        <time>2023-11-02T10:06:52Z</time>
      </trkpt>
      <trkpt lat="47.21662" lon="-1.67951">
        <ele>29</ele>
        <time>2023-11-02T10:08:58Z</time>
      </trkpt>
      <trkpt lat="47.21719" lon="-1.67968">
        <ele>29</ele>
        <time>2023-11-02T10:10:15Z</time>
      </trkpt>
      <trkpt lat="47.21738" lon="-1.67607">
        <ele>21</ele>
        <time>2023-11-02T10:15:44Z</time>
      </trkpt>
      <trkpt lat="47.218" lon="-1.67607">
        <ele>20</ele>
        <time>2023-11-02T10:17:06Z</time>
      </trkpt>
      <trkpt lat="47.21801" lon="-1.67579">
        <ele>19</ele>
        <time>2023-11-02T10:17:32Z</time>
      </trkpt>
      <trkpt lat="47.21778" lon="-1.67546">
        <ele>18</ele>
        <time>2023-11-02T10:18:15Z</time>
      </trkpt>
      <trkpt lat="47.21738" lon="-1.67527">
        <ele>17</ele>
        <time>2023-11-02T10:19:11Z</time>
      </trkpt>
      <trkpt lat="47.21752" lon="-1.67429">
        <ele>13</ele>
        <time>2023-11-02T10:20:41Z</time>
      </trkpt>
      <trkpt lat="47.21839" lon="-1.67484">
        <ele>18</ele>
        <time>2023-11-02T10:22:48Z</time>
      </trkpt>
      <trkpt lat="47.2193" lon="-1.67437">
        <ele>22</ele>
        <time>2023-11-02T10:24:56Z</time>
      </trkpt>
      <trkpt lat="47.22072" lon="-1.67408">
        <ele>21</ele>
        <time>2023-11-02T10:28:08Z</time>
      </trkpt>
      <trkpt lat="47.22116" lon="-1.67447">
        <ele>20</ele>
        <time>2023-11-02T10:29:16Z</time>
      </trkpt>
      <trkpt lat="47.22184" lon="-1.67432">
        <ele>18</ele>
        <time>2023-11-02T10:30:48Z</time>
      </trkpt>
      <trkpt lat="47.22269" lon="-1.67481">
        <ele>21</ele>
        <time>2023-11-02T10:32:50Z</time>
      </trkpt>
      <trkpt lat="47.22289" lon="-1.67459">
        <ele>21</ele>
        <time>2023-11-02T10:33:23Z</time>
      </trkpt>
      <trkpt lat="47.22376" lon="-1.6744">
        <ele>25</ele>
        <time>2023-11-02T10:35:21Z</time>
      </trkpt>
      <trkpt lat="47.22446" lon="-1.67405">
        <ele>27</ele>
        <time>2023-11-02T10:36:59Z</time>
      </trkpt>
      <trkpt lat="47.2254" lon="-1.67401">
        <ele>30</ele>
        <time>2023-11-02T10:39:05Z</time>
      </trkpt>
      <trkpt lat="47.22629" lon="-1.6741">
        <ele>34</ele>
        <time>2023-11-02T10:41:04Z</time>
      </trkpt>
      <trkpt lat="47.22718" lon="-1.67452">
        <ele>39</ele>
        <time>2023-11-02T10:43:08Z</time>
      </trkpt>
      <trkpt lat="47.22793" lon="-1.67529">
        <ele>44</ele>
        <time>2023-11-02T10:45:10Z</time>
      </trkpt>
      <trkpt lat="47.22816" lon="-1.67634">
        <ele>45</ele>
        <time>2023-11-02T10:46:50Z</time>
      </trkpt>
      <trkpt lat="47.22861" lon="-1.67702">
        <ele>47</ele>
        <time>2023-11-02T10:48:17Z</time>
      </trkpt>
      <trkpt lat="47.22955" lon="-1.67818">
        <ele>49</ele>
        <time>2023-11-02T10:51:00Z</time>
      </trkpt>
      <trkpt lat="47.22994" lon="-1.67868">
        <ele>49</ele>
        <time>2023-11-02T10:52:09Z</time>
      </trkpt>
      <trkpt lat="47.23035" lon="-1.68028">
        <ele>50</ele>
        <time>2023-11-02T10:54:44Z</time>
      </trkpt>
      <trkpt lat="47.23047" lon="-1.68104">
        <ele>49</ele>
        <time>2023-11-02T10:55:55Z</time>
      </trkpt>
      <trkpt lat="47.23058" lon="-1.68149">
        <ele>48</ele>
        <time>2023-11-02T10:56:38Z</time>
      </trkpt>
      <trkpt lat="47.23071" lon="-1.6819">
        <ele>48</ele>
        <time>2023-11-02T10:57:19Z</time>
      </trkpt>
      <trkpt lat="47.23093" lon="-1.68271">
        <ele>48</ele>
        <time>2023-11-02T10:58:38Z</time>
      </trkpt>
      <trkpt lat="47.23114" lon="-1.6834">
        <ele>47</ele>
        <time>2023-11-02T10:59:47Z</time>
      </trkpt>
      <trkpt lat="47.23118" lon="-1.68485">
        <ele>47</ele>
        <time>2023-11-02T11:01:58Z</time>
      </trkpt>
      <trkpt lat="47.23116" lon="-1.68545">
        <ele>47</ele>
        <time>2023-11-02T11:02:53Z</time>
      </trkpt>
      <trkpt lat="47.23182" lon="-1.68655">
        <ele>47</ele>
        <time>2023-11-02T11:05:06Z</time>
      </trkpt>
      <trkpt lat="47.23099" lon="-1.68702">
        <ele>44</ele>
        <time>2023-11-02T11:07:04Z</time>
      </trkpt>
      <trkpt lat="47.2301" lon="-1.68748">
        <ele>41</ele>
        <time>2023-11-02T11:09:10Z</time>
      </trkpt>
      <trkpt lat="47.23061" lon="-1.68856">
        <ele>41</ele>
        <time>2023-11-02T11:11:09Z</time>
      </trkpt>
      <trkpt lat="47.23079" lon="-1.68953">
        <ele>40</ele>
        <time>2023-11-02T11:12:41Z</time>
      </trkpt>
      <trkpt lat="47.23096" lon="-1.69018">
        <ele>40</ele>
        <time>2023-11-02T11:13:44Z</time>
      </trkpt>
      <trkpt lat="47.23134" lon="-1.69111">
        <ele>38</ele>
        <time>2023-11-02T11:15:22Z</time>
      </trkpt>
      <trkpt lat="47.23092" lon="-1.69164">
        <ele>36</ele>
        <time>2023-11-02T11:16:36Z</time>
      </trkpt>
      <trkpt lat="47.23032" lon="-1.6925">
        <ele>35</ele>
        <time>2023-11-02T11:18:28Z</time>
      </trkpt>
      <trkpt lat="47.23017" lon="-1.69367">
        <ele>35</ele>
        <time>2023-11-02T11:20:15Z</time>
      </trkpt>
      <trkpt lat="47.22993" lon="-1.69405">
        <ele>34</ele>
        <time>2023-11-02T11:21:03Z</time>
      </trkpt>
      <trkpt lat="47.2293" lon="-1.69483">
        <ele>29</ele>
        <time>2023-11-02T11:22:52Z</time>
      </trkpt>
      <trkpt lat="47.22781" lon="-1.69322">
        <ele>29</ele>
        <time>2023-11-02T11:26:59Z</time>
      </trkpt>
      <trkpt lat="47.2275" lon="-1.69245">
        <ele>29</ele>
        <time>2023-11-02T11:28:20Z</time>
      </trkpt>
      <trkpt lat="47.22728" lon="-1.69246">
        <ele>28</ele>
        <time>2023-11-02T11:28:49Z</time>
      </trkpt>
      <trkpt lat="47.22705" lon="-1.69299">
        <ele>25</ele>
        <time>2023-11-02T11:29:46Z</time>
      </trkpt>
      <trkpt lat="47.22666" lon="-1.6935">
        <ele>20</ele>
        <time>2023-11-02T11:30:56Z</time>
      </trkpt>
      <trkpt lat="47.22688" lon="-1.6942">
        <ele>19</ele>
        <time>2023-11-02T11:32:06Z</time>
      </trkpt>
      <trkpt lat="47.22736" lon="-1.69499">
        <ele>20</ele>
        <time>2023-11-02T11:33:42Z</time>
      </trkpt>
      <trkpt lat="47.22802" lon="-1.69608">
        <ele>17</ele>
        <time>2023-11-02T11:35:54Z</time>
      </trkpt>
      <trkpt lat="47.22819" lon="-1.69714">
        <ele>14</ele>
        <time>2023-11-02T11:37:33Z</time>
      </trkpt>
      <trkpt lat="47.22882" lon="-1.69788">
        <ele>18</ele>
        <time>2023-11-02T11:39:21Z</time>
      </trkpt>
      <trkpt lat="47.22825" lon="-1.69829">
        <ele>13</ele>
        <time>2023-11-02T11:40:45Z</time>
      </trkpt>
      <trkpt lat="47.2277" lon="-1.69861">
        <ele>10</ele>
        <time>2023-11-02T11:42:04Z</time>
      </trkpt>
      <trkpt lat="47.22738" lon="-1.6991">
        <ele>9</ele>
        <time>2023-11-02T11:43:06Z</time>
      </trkpt>
      <trkpt lat="47.22675" lon="-1.69923">
        <ele>7</ele>
        <time>2023-11-02T11:44:31Z</time>
      </trkpt>
      <trkpt lat="47.22683" lon="-1.70052">
        <ele>7</ele>
        <time>2023-11-02T11:46:28Z</time>
      </trkpt>
      <trkpt lat="47.22639" lon="-1.69957">
        <ele>7</ele>
        <time>2023-11-02T11:48:12Z</time>
      </trkpt>
      <trkpt lat="47.22568" lon="-1.69856">
        <ele>6</ele>
        <time>2023-11-02T11:50:24Z</time>
      </trkpt>
      <trkpt lat="47.22525" lon="-1.69726">
        <ele>5</ele>
        <time>2023-11-02T11:52:35Z</time>
      </trkpt>
      <trkpt lat="47.2245" lon="-1.69578">
        <ele>6</ele>
        <time>2023-11-02T11:55:22Z</time>
      </trkpt>
      <trkpt lat="47.22394" lon="-1.69466">
        <ele>6</ele>
        <time>2023-11-02T11:57:28Z</time>
      </trkpt>
      <trkpt lat="47.22351" lon="-1.69446">
        <ele>7</ele>
        <time>2023-11-02T11:58:29Z</time>
      </trkpt>
      <trkpt lat="47.22336" lon="-1.69348">
        <ele>11</ele>
        <time>2023-11-02T12:00:00Z</time>
      </trkpt>
      <trkpt lat="47.22422" lon="-1.69331">
        <ele>15</ele>
        <time>2023-11-02T12:01:55Z</time>
      </trkpt>
      <trkpt lat="47.22447" lon="-1.69297">
        <ele>17</ele>
        <time>2023-11-02T12:02:41Z</time>
      </trkpt>
      <trkpt lat="47.2249" lon="-1.69236">
        <ele>21</ele>
        <time>2023-11-02T12:04:01Z</time>
      </trkpt>
      <trkpt lat="47.2256" lon="-1.6927">
        <ele>23</ele>
        <time>2023-11-02T12:05:39Z</time>
      </trkpt>
      <trkpt lat="47.22592" lon="-1.69267">
        <ele>24</ele>
        <time>2023-11-02T12:06:22Z</time>
      </trkpt>
      <trkpt lat="47.22609" lon="-1.69235">
        <ele>25</ele>
        <time>2023-11-02T12:06:59Z</time>
      </trkpt>
      <trkpt lat="47.22607" lon="-1.69172">
        <ele>26</ele>
        <time>2023-11-02T12:07:56Z</time>
      </trkpt>
      <trkpt lat="47.22566" lon="-1.69114">
        <ele>24</ele>
        <time>2023-11-02T12:09:12Z</time>
      </trkpt>
      <trkpt lat="47.22471" lon="-1.69158">
        <ele>21</ele>
        <time>2023-11-02T12:11:24Z</time>
      </trkpt>
      <trkpt lat="47.22322" lon="-1.69115">
        <ele>20</ele>
        <time>2023-11-02T12:14:47Z</time>
      </trkpt>
      <trkpt lat="47.22269" lon="-1.69023">
        <ele>22</ele>
        <time>2023-11-02T12:16:36Z</time>
      </trkpt>
      <trkpt lat="47.22229" lon="-1.68942">
        <ele>22</ele>
        <time>2023-11-02T12:18:07Z</time>
      </trkpt>
      <trkpt lat="47.22183" lon="-1.6892">
        <ele>24</ele>
        <time>2023-11-02T12:19:12Z</time>
      </trkpt>
      <trkpt lat="47.22063" lon="-1.68852">
        <ele>25</ele>
        <time>2023-11-02T12:22:03Z</time>
      </trkpt>
      <trkpt lat="47.22042" lon="-1.68836">
        <ele>24</ele>
        <time>2023-11-02T12:22:35Z</time>
      </trkpt>
      <trkpt lat="47.22017" lon="-1.68755">
        <ele>26</ele>
        <time>2023-11-02T12:23:56Z</time>
      </trkpt>
      <trkpt lat="47.21999" lon="-1.68674">
        <ele>26</ele>
        <time>2023-11-02T12:25:13Z</time>
      </trkpt>
      <trkpt lat="47.21995" lon="-1.68545">
        <ele>27</ele>
        <time>2023-11-02T12:27:10Z</time>
      </trkpt>
      <trkpt lat="47.21886" lon="-1.68376">
        <ele>28</ele>
        <time>2023-11-02T12:30:41Z</time>
      </trkpt>
      <trkpt lat="47.21857" lon="-1.68337">
        <ele>28</ele>
        <time>2023-11-02T12:31:33Z</time>
      </trkpt>
      <trkpt lat="47.21797" lon="-1.68235">
        <ele>30</ele>
        <time>2023-11-02T12:33:36Z</time>
      </trkpt>
      <trkpt lat="47.21677" lon="-1.68198">
        <ele>32</ele>
        <time>2023-11-02T12:36:19Z</time>
      </trkpt>
      <trkpt lat="47.21532" lon="-1.68175">
        <ele>28</ele>
        <time>2023-11-02T12:39:34Z</time>
      </trkpt>
      <trkpt lat="47.21562" lon="-1.68283">
        <ele>28</ele>
        <time>2023-11-02T12:41:20Z</time>
      </trkpt>
    </trkseg>
  </trk>
</gpx>